Time;durP1;ratioP1;P1;durP2;ratioP2;P2;SDS_P1;SDS_P2;PMS_P1;PMS_P2;Temp;Humidity;BMP_temperature;BMP_pressure;BME280_temperature;BME280_humidity;BME280_pressure;Samples;Min_cycle;Max_cycle;Signal;HPM_P1;HPM_P2
2021/07/21 00:00:50;;;;;;;23.65;12.23;;;;;;;19.55;100.00;99342.23;1734022;82;21541;-80
2021/07/21 00:03:18;;;;;;;26.73;15.32;;;;;;;19.54;100.00;99353.41;1731727;82;21070;-82
2021/07/21 00:05:46;;;;;;;22.00;14.45;;;;;;;19.53;100.00;99349.53;1733939;82;21140;-83
2021/07/21 00:08:14;;;;;;;24.02;15.28;;;;;;;19.53;100.00;99351.70;1733879;82;21572;-83
2021/07/21 00:10:44;;;;;;;27.30;15.78;;;;;;;19.50;100.00;99350.15;1734050;82;21596;-80
2021/07/21 00:13:30;;;;;;;25.55;17.30;;;;;;;19.50;100.00;99342.14;1734250;82;21002;-78
2021/07/21 00:18:36;;;;;;;26.30;17.27;;;;;;;19.48;100.00;99343.25;1733826;82;21125;-81
2021/07/21 00:21:01;;;;;;;26.68;17.60;;;;;;;19.49;100.00;99341.80;1733674;82;21018;-81
2021/07/21 00:23:30;;;;;;;29.60;17.65;;;;;;;19.49;100.00;99337.79;1733971;82;21499;-81
2021/07/21 00:25:57;;;;;;;27.93;18.10;;;;;;;19.51;100.00;99330.99;1734120;82;21026;-79
2021/07/21 00:28:25;;;;;;;27.65;17.23;;;;;;;19.52;100.00;99328.66;1734244;82;21018;-80
2021/07/21 00:30:53;;;;;;;26.37;16.00;;;;;;;19.55;100.00;99326.21;1733945;82;21650;-76
2021/07/21 00:33:20;;;;;;;20.57;12.75;;;;;;;19.58;100.00;99331.28;1712921;82;21051;-80
2021/07/21 00:35:48;;;;;;;22.10;14.87;;;;;;;19.60;100.00;99330.66;1734163;82;21027;-79
2021/07/21 00:38:16;;;;;;;25.60;17.42;;;;;;;19.61;100.00;99334.54;1733891;82;21628;-78
2021/07/21 00:40:43;;;;;;;29.55;17.67;;;;;;;19.63;100.00;99337.09;1733914;82;21070;-79
2021/07/21 00:43:12;;;;;;;22.90;15.08;;;;;;;19.63;100.00;99341.09;1734252;82;21151;-81
2021/07/21 00:45:40;;;;;;;23.02;15.65;;;;;;;19.60;100.00;99331.98;1733729;82;21093;-79
2021/07/21 00:48:08;;;;;;;24.45;16.35;;;;;;;19.57;100.00;99337.61;1734508;82;21026;-79
2021/07/21 00:50:37;;;;;;;24.47;15.95;;;;;;;19.53;100.00;99334.84;1733752;81;21026;-81
2021/07/21 00:53:04;;;;;;;29.30;18.07;;;;;;;19.52;100.00;99337.17;1738097;82;21491;-85
2021/07/21 00:55:32;;;;;;;26.77;17.55;;;;;;;19.52;100.00;99335.84;1738355;82;21473;-85
2021/07/21 00:57:59;;;;;;;31.82;17.42;;;;;;;19.51;100.00;99333.66;1718106;82;20979;-84
2021/07/21 01:00:30;;;;;;;32.07;18.77;;;;;;;19.52;100.00;99335.84;1715254;82;21070;-83
2021/07/21 01:02:57;;;;;;;28.38;18.80;;;;;;;19.53;100.00;99330.84;1734606;82;21054;-84
2021/07/21 01:05:29;;;;;;;24.35;16.95;;;;;;;19.51;100.00;99328.32;1722406;82;21100;-85
2021/07/21 01:07:58;;;;;;;22.10;15.35;;;;;;;19.52;100.00;99331.33;1689886;84;21131;-84
2021/07/21 01:10:27;;;;;;;29.42;18.10;;;;;;;19.53;100.00;99328.17;1689870;84;21085;-84
2021/07/21 01:13:23;;;;;;;20.80;13.30;;;;;;;19.54;100.00;99333.88;1696414;83;21573;-84
2021/07/21 01:16:04;;;;;;;23.02;16.40;;;;;;;19.52;100.00;99326.00;1704286;84;21062;-82
2021/07/21 01:18:40;;;;;;;29.48;18.27;;;;;;;19.50;100.00;99324.78;1705037;84;21058;-81
2021/07/21 01:21:47;;;;;;;24.77;17.62;;;;;;;19.50;100.00;99328.78;1704936;83;21111;-81
2021/07/21 01:24:28;;;;;;;24.43;17.05;;;;;;;19.49;100.00;99324.94;1704394;84;21042;-81
2021/07/21 01:27:19;;;;;;;17.85;12.45;;;;;;;19.52;100.00;99325.16;1704478;84;21049;-81
2021/07/21 01:29:52;;;;;;;29.00;18.80;;;;;;;19.50;100.00;99316.77;1704488;84;21035;-79
2021/07/21 01:32:20;;;;;;;28.70;17.12;;;;;;;19.53;100.00;99324.16;1704767;84;21043;-83
2021/07/21 01:34:50;;;;;;;27.25;17.95;;;;;;;19.54;100.00;99314.69;1704868;84;21086;-83
2021/07/21 01:37:17;;;;;;;26.42;16.77;;;;;;;19.55;100.00;99314.20;1704804;84;21061;-79
2021/07/21 01:39:47;;;;;;;23.20;15.95;;;;;;;19.56;100.00;99310.56;1704735;84;21517;-80
2021/07/21 01:42:16;;;;;;;25.17;16.77;;;;;;;19.56;100.00;99306.06;1704937;84;21152;-80
2021/07/21 01:44:49;;;;;;;26.48;17.05;;;;;;;19.57;100.00;99306.90;1704509;84;21026;-77
2021/07/21 01:47:22;;;;;;;21.60;15.30;;;;;;;19.59;100.00;99303.11;1704684;84;21073;-78
2021/07/21 01:49:46;;;;;;;26.27;16.70;;;;;;;19.61;100.00;99297.15;1704219;83;21042;-79
2021/07/21 01:52:14;;;;;;;27.60;15.95;;;;;;;19.64;100.00;99296.03;1704536;84;21837;-81
2021/07/21 01:54:42;;;;;;;27.48;15.23;;;;;;;19.66;100.00;99296.25;1704594;84;21085;-81
2021/07/21 01:57:12;;;;;;;20.35;12.70;;;;;;;19.66;100.00;99302.08;1701712;83;21062;-77
2021/07/21 01:59:44;;;;;;;27.83;15.37;;;;;;;19.67;100.00;99302.45;1702920;84;22203;-78
2021/07/21 02:02:13;;;;;;;18.70;10.82;;;;;;;19.66;100.00;99300.75;1703726;83;21034;-78
2021/07/21 02:04:43;;;;;;;28.05;16.93;;;;;;;19.66;100.00;99296.74;1682839;84;21118;-78
2021/07/21 02:07:10;;;;;;;26.20;16.00;;;;;;;19.66;100.00;99302.08;1704383;84;21003;-79
2021/07/21 02:09:40;;;;;;;33.35;18.65;;;;;;;19.68;100.00;99301.46;1684332;84;21026;-79
2021/07/21 02:12:09;;;;;;;33.40;19.45;;;;;;;19.66;100.00;99297.58;1686501;82;21904;-77
2021/07/21 02:14:36;;;;;;;27.45;18.73;;;;;;;19.66;100.00;99307.42;1733638;82;21600;-78
2021/07/21 02:17:09;;;;;;;27.75;18.23;;;;;;;19.64;100.00;99305.38;1733491;82;21548;-78
2021/07/21 02:19:39;;;;;;;32.53;18.57;;;;;;;19.64;100.00;99301.38;1728320;82;21136;-75
2021/07/21 02:22:08;;;;;;;32.55;19.73;;;;;;;19.61;100.00;99304.32;1699718;83;21117;-79
2021/07/21 02:24:37;;;;;;;30.95;18.52;;;;;;;19.60;100.00;99302.61;1704389;84;21550;-77
2021/07/21 02:27:15;;;;;;;27.00;17.05;;;;;;;19.59;100.00;99310.28;1674024;83;21125;-78
2021/07/21 02:29:43;;;;;;;27.00;18.48;;;;;;;19.55;100.00;99305.69;1704727;84;21073;-77
2021/07/21 02:32:17;;;;;;;32.28;19.90;;;;;;;19.56;100.00;99313.23;1704824;84;21122;-81
2021/07/21 02:34:44;;;;;;;30.97;18.05;;;;;;;19.55;100.00;99311.52;1705132;84;21022;-79
2021/07/21 02:37:15;;;;;;;33.65;21.10;;;;;;;19.48;100.00;99314.72;1704347;84;22003;-79
2021/07/21 02:39:45;;;;;;;32.73;20.43;;;;;;;19.41;100.00;99313.56;1704603;84;21604;-79
2021/07/21 02:42:15;;;;;;;28.42;18.82;;;;;;;19.35;100.00;99316.78;1704705;84;21097;-80
2021/07/21 02:44:45;;;;;;;32.75;19.45;;;;;;;19.27;100.00;99316.59;1704830;84;21014;-80
2021/07/21 02:47:13;;;;;;;30.15;19.50;;;;;;;19.22;100.00;99313.48;1705034;84;21037;-80
2021/07/21 02:49:41;;;;;;;29.87;20.30;;;;;;;19.20;100.00;99319.43;1717443;82;21327;-79
2021/07/21 02:52:28;;;;;;;32.67;21.90;;;;;;;19.21;100.00;99325.11;1719661;83;21055;-79
2021/07/21 02:55:14;;;;;;;31.30;19.52;;;;;;;19.19;100.00;99329.77;1720114;82;21011;-80
2021/07/21 02:58:03;;;;;;;28.77;19.30;;;;;;;19.11;100.00;99327.73;1734046;81;21010;-80
2021/07/21 03:00:31;;;;;;;29.07;18.40;;;;;;;19.10;100.00;99333.22;1727947;82;21050;-79
2021/07/21 03:03:07;;;;;;;32.70;20.48;;;;;;;19.07;100.00;99339.17;1704829;83;21368;-79
2021/07/21 03:05:36;;;;;;;34.33;20.95;;;;;;;19.05;100.00;99333.11;1704703;84;21029;-79
2021/07/21 03:08:05;;;;;;;32.33;19.55;;;;;;;19.02;100.00;99329.35;1704927;83;21050;-80
2021/07/21 03:10:33;;;;;;;37.25;21.30;;;;;;;19.01;100.00;99325.01;1705014;83;21056;-80
2021/07/21 03:13:08;;;;;;;36.40;21.62;;;;;;;18.97;100.00;99320.90;1706658;83;21016;-80
2021/07/21 03:15:41;;;;;;;32.05;21.07;;;;;;;18.92;100.00;99329.79;1719021;82;21157;-78
2021/07/21 03:18:12;;;;;;;31.75;21.77;;;;;;;18.88;100.00;99333.69;1715125;82;21029;-78
2021/07/21 03:20:43;;;;;;;35.10;20.75;;;;;;;18.85;100.00;99340.13;1704912;84;21042;-78
2021/07/21 03:23:10;;;;;;;31.68;20.65;;;;;;;18.83;100.00;99338.56;1704727;84;21054;-76
2021/07/21 03:25:40;;;;;;;33.90;21.65;;;;;;;18.84;100.00;99340.24;1704464;84;21581;-77
2021/07/21 03:28:06;;;;;;;28.62;18.30;;;;;;;18.83;100.00;99341.23;1670888;85;21120;-76
2021/07/21 03:30:35;;;;;;;31.75;18.02;;;;;;;18.85;100.00;99339.28;1664519;86;21022;-77
2021/07/21 03:33:06;;;;;;;37.00;18.07;;;;;;;18.88;100.00;99343.02;1665126;86;21080;-76
2021/07/21 03:35:35;;;;;;;29.10;18.42;;;;;;;18.91;100.00;99341.45;1665414;86;21054;-75
2021/07/21 03:38:04;;;;;;;30.48;19.40;;;;;;;18.94;100.00;99341.67;1670788;85;21061;-77
2021/07/21 03:40:34;;;;;;;34.27;19.02;;;;;;;18.94;100.00;99342.52;1666593;84;21178;-78
2021/07/21 03:43:03;;;;;;;33.42;20.62;;;;;;;18.96;100.00;99343.23;1648258;85;21056;-77
2021/07/21 03:45:32;;;;;;;28.23;19.85;;;;;;;18.98;100.00;99346.63;1661269;85;21521;-78
2021/07/21 03:47:59;;;;;;;35.90;20.68;;;;;;;19.00;100.00;99356.68;1666152;86;21046;-76
2021/07/21 03:50:28;;;;;;;30.85;19.75;;;;;;;19.03;100.00;99355.08;1661668;86;21347;-77
2021/07/21 03:52:56;;;;;;;31.05;19.57;;;;;;;19.06;100.00;99356.63;1671097;85;21169;-77
2021/07/21 03:55:28;;;;;;;35.20;20.35;;;;;;;19.08;100.00;99358.20;1667661;86;21065;-77
2021/07/21 03:57:59;;;;;;;29.70;19.52;;;;;;;19.10;100.00;99373.25;1665020;84;21038;-77
2021/07/21 04:00:40;;;;;;;34.95;19.45;;;;;;;19.10;100.00;99381.25;1647273;85;21034;-77
2021/07/21 04:03:08;;;;;;;32.88;21.33;;;;;;;19.11;100.00;99381.59;1700928;84;21113;-77
2021/07/21 04:05:43;;;;;;;29.98;19.48;;;;;;;19.12;100.00;99388.61;1695689;84;21158;-78
2021/07/21 04:08:12;;;;;;;25.30;17.85;;;;;;;19.10;100.00;99394.11;1693892;84;21050;-77
2021/07/21 04:10:40;;;;;;;27.93;18.10;;;;;;;19.12;100.00;99398.83;1652292;84;21610;-77
2021/07/21 04:13:07;;;;;;;31.07;19.23;;;;;;;19.12;100.00;99403.30;1691566;84;21560;-75
2021/07/21 04:15:36;;;;;;;33.63;21.25;;;;;;;19.12;100.00;99404.63;1678778;84;21053;-74
2021/07/21 04:18:11;;;;;;;36.50;20.10;;;;;;;19.14;100.00;99398.21;1694439;84;21160;-76
2021/07/21 04:20:39;;;;;;;31.30;19.80;;;;;;;19.17;100.00;99406.45;1632672;85;21579;-77
2021/07/21 04:23:06;;;;;;;30.05;20.48;;;;;;;19.21;100.00;99399.84;1689893;84;21121;-80
2021/07/21 04:25:34;;;;;;;28.55;20.48;;;;;;;19.22;100.00;99402.40;1678196;84;21638;-81
2021/07/21 04:28:03;;;;;;;27.73;19.60;;;;;;;19.23;100.00;99408.58;1667330;84;21602;-80
2021/07/21 04:30:33;;;;;;;28.80;19.12;;;;;;;19.23;100.00;99405.91;1685523;84;21199;-79
2021/07/21 04:33:01;;;;;;;32.73;19.90;;;;;;;19.23;100.00;99407.24;1675447;84;21090;-79
2021/07/21 04:35:31;;;;;;;27.63;18.30;;;;;;;19.23;100.00;99405.91;1666217;84;21110;-79
2021/07/21 04:38:03;;;;;;;31.27;17.52;;;;;;;19.25;100.00;99409.30;1678786;84;21136;-79
2021/07/21 04:40:46;;;;;;;25.57;17.73;;;;;;;19.23;100.00;99417.92;1661797;84;21085;-80
2021/07/21 04:43:31;;;;;;;27.58;19.25;;;;;;;19.22;100.00;99415.75;1673860;84;21135;-79
2021/07/21 04:45:59;;;;;;;29.20;17.85;;;;;;;19.22;100.00;99409.56;1653801;85;21088;-80
2021/07/21 04:48:26;;;;;;;26.45;17.50;;;;;;;19.18;100.00;99410.80;1677235;84;21447;-79
2021/07/21 04:50:55;;;;;;;26.37;17.05;;;;;;;19.17;100.00;99415.30;1679442;84;21082;-83
2021/07/21 04:53:21;;;;;;;29.52;17.67;;;;;;;19.20;100.00;99407.52;1667259;85;21069;-81
2021/07/21 04:55:49;;;;;;;24.67;17.23;;;;;;;19.21;100.00;99411.39;1639572;84;21077;-80
2021/07/21 04:58:16;;;;;;;27.25;17.12;;;;;;;19.18;100.00;99406.79;1687464;83;21114;-82
2021/07/21 05:00:44;;;;;;;25.68;16.12;;;;;;;19.19;100.00;99403.16;1707457;83;21114;-78
2021/07/21 05:03:13;;;;;;;23.98;15.58;;;;;;;19.17;100.00;99403.78;1685480;83;21063;-81
2021/07/21 05:05:41;;;;;;;27.32;15.98;;;;;;;19.14;100.00;99402.22;1711576;83;21578;-80
2021/07/21 05:08:09;;;;;;;23.62;14.45;;;;;;;19.14;100.00;99401.34;1690934;83;21152;-81
2021/07/21 05:10:40;;;;;;;25.12;15.38;;;;;;;19.18;100.00;99397.45;1684401;85;21309;-79
2021/07/21 05:13:08;;;;;;;26.07;15.23;;;;;;;19.14;100.00;99394.67;1678093;84;21072;-79
2021/07/21 05:15:36;;;;;;;26.75;15.45;;;;;;;19.14;100.00;99394.67;1683374;84;21068;-81
2021/07/21 05:18:13;;;;;;;20.72;13.35;;;;;;;19.20;100.00;99398.17;1704399;83;21543;-81
2021/07/21 05:20:43;;;;;;;19.85;13.55;;;;;;;19.25;100.00;99385.27;1695099;83;21175;-80
2021/07/21 05:23:10;;;;;;;20.97;13.62;;;;;;;19.34;100.00;99389.83;1687326;84;21030;-80
2021/07/21 05:25:40;;;;;;;20.45;12.88;;;;;;;19.43;100.00;99385.03;1683194;84;21116;-75
2021/07/21 05:28:26;;;;;;;20.95;12.20;;;;;;;19.50;100.00;99383.53;1672225;84;21508;-76
2021/07/21 05:30:55;;;;;;;18.27;11.55;;;;;;;19.56;99.60;99382.17;1672959;84;21562;-78
2021/07/21 05:33:22;;;;;;;21.27;12.70;;;;;;;19.64;98.86;99380.16;1676683;84;21123;-77
2021/07/21 05:35:51;;;;;;;16.32;10.70;;;;;;;19.74;97.81;99391.79;1675069;84;21108;-75
2021/07/21 05:38:19;;;;;;;17.92;11.55;;;;;;;19.78;96.66;99385.17;1688709;83;21145;-77
2021/07/21 05:40:47;;;;;;;17.20;11.10;;;;;;;19.84;96.89;99392.66;1685463;82;21067;-78
2021/07/21 05:43:15;;;;;;;17.60;11.25;;;;;;;20.05;96.19;99395.28;1695687;84;21079;-78
2021/07/21 05:45:50;;;;;;;17.02;10.18;;;;;;;20.25;96.57;99390.84;1697801;84;21855;-77
2021/07/21 05:48:17;;;;;;;14.95;9.93;;;;;;;20.50;94.11;99384.64;1674665;84;21605;-78
2021/07/21 05:51:03;;;;;;;17.87;11.05;;;;;;;20.63;92.06;99386.57;1697945;84;21061;-78
2021/07/21 05:53:31;;;;;;;16.65;9.90;;;;;;;20.72;91.72;99384.39;1678859;84;21111;-76
2021/07/21 05:55:58;;;;;;;17.98;10.23;;;;;;;20.82;90.40;99382.22;1711274;83;21078;-78
2021/07/21 05:58:27;;;;;;;17.67;10.72;;;;;;;20.95;89.80;99385.46;1679660;84;21154;-78
2021/07/21 06:00:54;;;;;;;16.93;10.35;;;;;;;21.08;89.05;99386.02;1723129;82;21020;-78
2021/07/21 06:03:24;;;;;;;19.85;9.95;;;;;;;21.21;88.25;99383.06;1713787;82;21540;-78
2021/07/21 06:05:53;;;;;;;17.30;10.18;;;;;;;21.40;88.16;99379.53;1693510;81;21090;-78
2021/07/21 06:08:22;;;;;;;15.05;9.70;;;;;;;21.56;86.26;99383.78;1723430;82;21113;-77
2021/07/21 06:10:51;;;;;;;17.57;9.25;;;;;;;21.68;85.26;99390.31;1720669;82;21095;-79
2021/07/21 06:13:21;;;;;;;16.00;9.25;;;;;;;21.81;83.32;99385.48;1665339;84;21089;-79
2021/07/21 06:15:49;;;;;;;14.55;9.23;;;;;;;21.93;82.33;99380.77;1713613;82;21062;-78
2021/07/21 06:18:17;;;;;;;16.52;10.28;;;;;;;22.02;81.88;99379.02;1716021;82;21050;-78
2021/07/21 06:20:46;;;;;;;17.50;9.10;;;;;;;22.07;80.69;99386.14;1722829;81;21044;-78
2021/07/21 06:23:13;;;;;;;14.38;9.43;;;;;;;22.09;81.30;99385.50;1729826;82;21509;-80
2021/07/21 06:25:46;;;;;;;19.65;9.10;;;;;;;22.10;80.00;99379.12;1723111;82;21163;-79
2021/07/21 06:28:13;;;;;;;12.13;8.03;;;;;;;22.10;79.16;99384.49;1730971;81;21046;-79
2021/07/21 06:30:41;;;;;;;18.40;8.58;;;;;;;22.23;78.29;99385.02;1727614;82;21095;-80
2021/07/21 06:33:10;;;;;;;15.85;8.85;;;;;;;22.47;77.77;99388.97;1717008;82;21062;-79
2021/07/21 06:35:38;;;;;;;19.73;9.05;;;;;;;22.87;79.12;99386.34;1722145;82;21566;-78
2021/07/21 06:38:05;;;;;;;15.60;8.50;;;;;;;23.42;77.98;99387.48;1719280;82;21023;-79
2021/07/21 06:40:33;;;;;;;16.30;8.75;;;;;;;24.03;75.76;99386.53;1724327;82;21082;-78
2021/07/21 06:43:02;;;;;;;17.92;8.93;;;;;;;24.65;73.21;99377.34;1726014;82;21495;-76
2021/07/21 06:45:33;;;;;;;15.13;8.30;;;;;;;25.21;69.52;99378.39;1724712;81;21082;-78
2021/07/21 06:48:02;;;;;;;12.20;8.07;;;;;;;25.70;67.82;99380.20;1722248;82;21141;-79
2021/07/21 06:50:31;;;;;;;13.25;8.05;;;;;;;26.05;65.83;99385.66;1713570;82;21734;-79
2021/07/21 06:52:57;;;;;;;14.23;8.20;;;;;;;26.34;62.29;99382.82;1724824;82;21047;-78
2021/07/21 06:55:27;;;;;;;12.30;7.87;;;;;;;26.54;61.48;99388.14;1692051;82;21058;-80
2021/07/21 06:57:55;;;;;;;17.52;9.20;;;;;;;26.68;59.13;99384.35;1720040;81;21020;-79
2021/07/21 07:00:34;;;;;;;11.53;7.97;;;;;;;26.81;58.97;99392.70;1694766;82;21073;-80
2021/07/21 07:03:03;;;;;;;13.28;8.08;;;;;;;26.93;58.89;99388.55;1724045;82;21490;-79
2021/07/21 07:05:48;;;;;;;11.90;7.40;;;;;;;27.25;58.41;99386.64;1730541;82;21589;-79
2021/07/21 07:08:34;;;;;;;13.13;8.35;;;;;;;27.68;57.08;99385.55;1698044;82;21066;-80
2021/07/21 07:11:09;;;;;;;11.95;7.92;;;;;;;27.99;54.39;99388.61;1693824;82;21139;-80
2021/07/21 07:13:40;;;;;;;12.85;7.53;;;;;;;28.17;53.19;99389.06;1710512;82;21961;-79
2021/07/21 07:16:07;;;;;;;15.35;7.55;;;;;;;28.31;52.55;99389.23;1706047;82;21037;-84
2021/07/21 07:18:36;;;;;;;10.20;6.90;;;;;;;28.44;52.50;99398.87;1661899;84;21050;-86
2021/07/21 07:21:02;;;;;;;13.65;8.35;;;;;;;28.45;51.88;99394.59;1704715;84;21101;-81
2021/07/21 07:23:29;;;;;;;14.85;8.00;;;;;;;28.22;52.23;99394.73;1727403;82;21125;-85
2021/07/21 07:25:57;;;;;;;12.75;7.97;;;;;;;27.82;53.74;99395.53;1734002;82;21176;-84
2021/07/21 07:28:23;;;;;;;14.95;7.83;;;;;;;27.73;54.49;99391.24;1723566;82;21069;-85
2021/07/21 07:30:51;;;;;;;10.38;7.53;;;;;;;27.67;54.36;99389.78;1730464;82;21061;-82
2021/07/21 07:33:18;;;;;;;14.68;8.03;;;;;;;27.55;54.62;99392.11;1727923;82;21560;-81
2021/07/21 07:35:44;;;;;;;13.58;7.95;;;;;;;27.44;55.07;99390.69;1713358;82;21067;-83
2021/07/21 07:38:12;;;;;;;11.40;7.95;;;;;;;27.27;55.44;99384.60;1720482;82;21869;-85
2021/07/21 07:40:41;;;;;;;12.35;8.18;;;;;;;27.17;55.86;99392.07;1717208;82;21030;-83
2021/07/21 07:43:08;;;;;;;14.20;7.22;;;;;;;27.10;56.31;99388.42;1720439;82;21053;-83
2021/07/21 07:45:35;;;;;;;11.18;8.78;;;;;;;26.92;56.77;99392.81;1711605;82;21093;-80
2021/07/21 07:48:02;;;;;;;11.25;7.78;;;;;;;26.78;57.67;99395.78;1719770;82;21489;-84
2021/07/21 07:50:30;;;;;;;12.68;8.28;;;;;;;26.70;57.76;99390.41;1722935;82;21076;-80
2021/07/21 07:52:56;;;;;;;11.45;8.93;;;;;;;26.69;56.11;99396.33;1722931;82;21069;-79
2021/07/21 07:55:25;;;;;;;11.83;8.50;;;;;;;26.56;56.98;99396.91;1718393;82;21022;-80
2021/07/21 07:57:52;;;;;;;13.72;8.43;;;;;;;26.47;56.43;99391.19;1715874;82;21066;-76
2021/07/21 08:00:20;;;;;;;17.62;8.33;;;;;;;26.40;56.65;99388.88;1735317;80;21588;-80
2021/07/21 08:02:47;;;;;;;14.65;8.50;;;;;;;26.26;56.89;99393.67;1731065;82;21093;-80
2021/07/21 08:05:14;;;;;;;12.88;8.23;;;;;;;26.23;57.41;99399.44;1726878;82;21583;-79
2021/07/21 08:07:41;;;;;;;12.43;7.87;;;;;;;26.21;56.78;99396.06;1731573;82;21123;-79
2021/07/21 08:10:13;;;;;;;11.60;8.48;;;;;;;26.19;55.16;99394.05;1733852;82;21093;-79
2021/07/21 08:12:38;;;;;;;16.23;7.78;;;;;;;26.20;55.09;99391.67;1731973;82;21520;-81
2021/07/21 08:15:06;;;;;;;11.60;8.08;;;;;;;26.23;54.96;99400.78;1735660;82;21212;-79
2021/07/21 08:17:33;;;;;;;10.35;7.70;;;;;;;26.18;54.65;99397.74;1728315;82;22199;-80
2021/07/21 08:20:00;;;;;;;10.82;8.18;;;;;;;26.09;53.67;99403.19;1747226;82;21029;-80
2021/07/21 08:22:27;;;;;;;11.22;7.65;;;;;;;26.07;54.95;99397.64;1747744;82;21062;-79
2021/07/21 08:24:54;;;;;;;13.15;7.67;;;;;;;26.07;53.29;99403.88;1730344;82;21006;-78
2021/07/21 08:27:20;;;;;;;10.38;7.42;;;;;;;26.03;53.86;99397.14;1735591;82;21147;-79
2021/07/21 08:29:47;;;;;;;14.05;7.42;;;;;;;26.07;54.79;99406.57;1724916;82;21065;-79
2021/07/21 08:32:14;;;;;;;12.28;7.17;;;;;;;26.23;54.44;99412.92;1742786;82;21101;-78
2021/07/21 08:34:42;;;;;;;11.28;8.15;;;;;;;26.45;55.12;99410.77;1735858;82;20990;-79
2021/07/21 08:37:09;;;;;;;10.78;7.08;;;;;;;26.55;54.57;99410.09;1731481;82;21052;-79
2021/07/21 08:39:36;;;;;;;11.60;7.60;;;;;;;26.57;55.22;99405.36;1683204;82;21046;-78
2021/07/21 08:42:04;;;;;;;16.07;7.92;;;;;;;26.53;53.41;99406.69;1738437;82;21100;-79
2021/07/21 08:44:32;;;;;;;15.03;8.05;;;;;;;26.38;54.80;99414.68;1735386;81;21172;-76
2021/07/21 08:46:59;;;;;;;12.20;7.67;;;;;;;26.41;55.51;99423.45;1719388;82;21117;-79
2021/07/21 08:49:26;;;;;;;12.23;7.92;;;;;;;26.57;55.42;99416.16;1732940;82;21128;-79
2021/07/21 08:51:54;;;;;;;11.57;7.45;;;;;;;26.65;55.05;99419.83;1732683;82;21470;-78
2021/07/21 08:54:21;;;;;;;10.18;7.30;;;;;;;26.70;55.59;99417.42;1732941;82;21128;-75
2021/07/21 08:56:48;;;;;;;10.85;6.67;;;;;;;26.76;55.47;99422.95;1734682;82;21291;-74
2021/07/21 08:59:16;;;;;;;9.95;6.67;;;;;;;26.77;54.58;99419.73;1727895;82;21094;-74
2021/07/21 09:01:43;;;;;;;11.45;6.80;;;;;;;26.83;54.33;99421.73;1718307;82;21062;-74
2021/07/21 09:04:10;;;;;;;12.25;7.05;;;;;;;26.95;54.17;99424.86;1716650;82;21134;-73
2021/07/21 09:06:41;;;;;;;8.93;6.62;;;;;;;27.08;52.50;99416.13;1713687;82;21030;-72
2021/07/21 09:09:09;;;;;;;13.53;6.67;;;;;;;27.19;51.48;99408.95;1679976;84;21057;-74
2021/07/21 09:11:36;;;;;;;11.53;6.45;;;;;;;27.30;50.64;99415.83;1719631;82;21002;-74
2021/07/21 09:14:04;;;;;;;10.18;6.80;;;;;;;27.41;50.62;99414.05;1716767;82;21041;-74
2021/07/21 09:16:31;;;;;;;12.47;7.10;;;;;;;27.50;49.96;99418.88;1719312;82;21595;-75
2021/07/21 09:18:58;;;;;;;10.10;6.62;;;;;;;27.61;48.69;99419.78;1712016;82;21085;-74
2021/07/21 09:21:26;;;;;;;9.93;6.17;;;;;;;27.74;48.22;99412.36;1718001;82;21156;-75
2021/07/21 09:23:57;;;;;;;10.80;6.33;;;;;;;27.99;48.76;99418.38;1719785;82;21053;-77
2021/07/21 09:26:32;;;;;;;;;;;;;;;28.36;47.34;99417.92;1719467;82;21054;-76
2021/07/21 09:29:03;;;;;;;11.10;6.35;;;;;;;28.74;46.13;99421.85;1720580;82;21876;-76
2021/07/21 09:31:37;;;;;;;12.35;6.12;;;;;;;29.12;45.27;99412.97;1721331;82;21050;-75
2021/07/21 09:34:16;;;;;;;11.48;6.40;;;;;;;29.58;45.00;99407.09;1715805;82;21101;-76
2021/07/21 09:36:43;;;;;;;9.53;6.12;;;;;;;29.97;44.15;99411.13;1717821;82;21145;-77
2021/07/21 09:39:11;;;;;;;8.75;5.15;;;;;;;30.08;43.06;99408.38;1717798;82;21101;-80
2021/07/21 09:41:51;;;;;;;8.08;5.05;;;;;;;30.16;42.53;99408.23;1718196;82;21151;-76
2021/07/21 09:44:32;;;;;;;10.03;5.28;;;;;;;30.37;40.92;99410.02;1716109;82;21026;-78
2021/07/21 09:47:24;;;;;;;9.63;6.10;;;;;;;30.54;40.27;99410.48;1712352;82;21105;-76
2021/07/21 09:50:13;;;;;;;9.20;6.15;;;;;;;30.40;42.47;99410.96;1706270;82;21537;-78
2021/07/21 09:52:48;;;;;;;9.58;6.17;;;;;;;30.37;41.68;99403.72;1704789;82;21104;-78
2021/07/21 09:55:16;;;;;;;9.88;6.03;;;;;;;30.37;41.68;99403.72;1704674;84;21121;-76
2021/07/21 09:57:46;;;;;;;8.80;5.10;;;;;;;30.18;42.67;99397.97;1704560;84;21045;-77
2021/07/21 10:00:22;;;;;;;10.85;6.05;;;;;;;30.21;43.00;99397.59;1730805;81;21041;-78
2021/07/21 10:02:50;;;;;;;8.05;5.40;;;;;;;30.39;42.01;99397.08;1747858;82;21600;-77
2021/07/21 10:05:17;;;;;;;9.05;5.60;;;;;;;30.60;40.42;99393.38;1740330;82;21053;-74
2021/07/21 10:10:16;;;;;;;13.15;6.00;;;;;;;30.58;41.20;99395.45;1744078;82;21631;-74
2021/07/21 10:14:19;;;;;;;8.95;5.47;;;;;;;30.46;40.33;99391.64;1792334;79;22599;-76
2021/07/21 10:16:50;;;;;;;10.00;5.80;;;;;;;30.22;40.08;99387.03;1733802;81;21004;-75
2021/07/21 10:19:23;;;;;;;8.43;5.65;;;;;;;30.15;40.96;99390.24;1730499;82;21188;-78
2021/07/21 10:22:01;;;;;;;10.88;5.80;;;;;;;30.38;40.49;99389.13;1728156;81;20950;-77
2021/07/21 10:24:32;;;;;;;10.30;5.78;;;;;;;30.63;40.02;99379.38;1734064;82;21572;-77
2021/07/21 10:26:59;;;;;;;8.75;5.42;;;;;;;30.58;38.68;99381.88;1729612;82;21109;-78
2021/07/21 10:29:27;;;;;;;8.53;5.58;;;;;;;30.11;39.59;99380.82;1735246;81;21084;-78
2021/07/21 10:31:54;;;;;;;8.73;5.35;;;;;;;29.57;40.81;99386.97;1735200;82;21836;-77
2021/07/21 10:34:22;;;;;;;6.30;5.08;;;;;;;29.49;41.56;99384.73;1734972;81;21049;-78
2021/07/21 10:36:49;;;;;;;9.98;5.55;;;;;;;29.49;41.56;99384.73;1735137;81;21057;-78
2021/07/21 10:39:27;;;;;;;10.58;5.47;;;;;;;29.48;42.03;99377.61;1738263;82;21042;-77
2021/07/21 10:41:54;;;;;;;7.33;6.00;;;;;;;29.47;42.01;99380.02;1731895;81;21054;-79
2021/07/21 10:44:21;;;;;;;8.48;5.30;;;;;;;29.42;41.78;99383.81;1730654;81;21141;-77
2021/07/21 10:46:51;;;;;;;10.08;5.75;;;;;;;29.43;41.72;99376.02;1732520;82;21074;-78
2021/07/21 10:49:35;;;;;;;10.28;6.05;;;;;;;29.34;42.04;99382.62;1729417;82;21045;-79
2021/07/21 10:55:15;;;;;;;12.45;5.80;;;;;;;28.96;43.11;99380.69;1740513;82;21038;-74
2021/07/21 11:00:30;;;;;;;6.08;4.85;;;;;;;28.59;45.04;99381.25;1739656;82;21067;-74
2021/07/21 11:03:24;;;;;;;10.05;6.05;;;;;;;28.59;45.08;99376.66;1740100;82;21052;-75
2021/07/21 11:06:07;;;;;;;7.25;5.60;;;;;;;28.90;45.18;99370.12;1740428;82;21065;-75
2021/07/21 11:08:47;;;;;;;14.98;5.80;;;;;;;29.32;42.04;99364.88;1740705;82;21057;-75
2021/07/21 11:11:22;;;;;;;8.48;5.90;;;;;;;29.58;41.10;99357.43;1730109;82;21137;-75
2021/07/21 11:13:57;;;;;;;9.60;5.60;;;;;;;29.71;41.46;99361.62;1726300;81;21579;-74
2021/07/21 11:16:48;;;;;;;8.33;5.17;;;;;;;29.94;40.72;99367.28;1725419;82;21120;-74
2021/07/21 11:19:43;;;;;;;8.05;5.12;;;;;;;30.15;40.11;99367.16;1715604;83;21112;-76
2021/07/21 11:22:24;;;;;;;8.75;5.62;;;;;;;30.38;38.50;99362.79;1715584;82;21010;-75
2021/07/21 11:25:07;;;;;;;8.43;5.40;;;;;;;30.34;39.19;99367.48;1718448;83;21594;-74
2021/07/21 11:27:45;;;;;;;9.73;5.50;;;;;;;30.23;39.44;99376.50;1719794;83;21502;-73
2021/07/21 11:30:42;;;;;;;12.58;5.42;;;;;;;29.99;39.25;99372.94;1727641;83;21022;-74
2021/07/21 11:33:54;;;;;;;7.90;5.35;;;;;;;29.74;40.02;99365.80;1727366;82;20995;-75
2021/07/21 11:36:46;;;;;;;9.85;5.70;;;;;;;29.60;40.25;99368.40;1731823;82;21086;-74
2021/07/21 11:39:54;;;;;;;7.75;5.70;;;;;;;29.42;39.80;99371.60;1713299;82;21033;-74
2021/07/21 11:42:38;;;;;;;13.22;6.70;;;;;;;29.22;41.14;99378.78;1722030;83;21118;-72
2021/07/21 11:45:11;;;;;;;7.47;4.65;;;;;;;29.08;40.60;99377.83;1721331;83;21054;-72
2021/07/21 11:47:47;;;;;;;6.83;5.03;;;;;;;29.10;39.07;99374.90;1723849;82;20995;-72
2021/07/21 11:50:20;;;;;;;8.95;5.90;;;;;;;29.03;39.24;99372.95;1719330;83;21616;-75